createdAt,value
2022-12-26T00:01:16.021Z,87.2
2022-12-26T00:02:32.324Z,87.2
2022-12-26T00:03:48.612Z,87.4
2022-12-26T00:05:04.890Z,87.4
2022-12-26T00:06:21.175Z,87.5
2022-12-26T00:07:37.489Z,87.5
2022-12-26T00:08:53.797Z,87.2
2022-12-26T00:10:09.100Z,87.1
2022-12-26T00:11:24.392Z,87
2022-12-26T00:12:39.716Z,87
2022-12-26T00:13:55.014Z,87.2
2022-12-26T00:15:10.342Z,87.2
2022-12-26T00:16:25.644Z,87.4
2022-12-26T00:17:41.959Z,87.5
2022-12-26T00:18:58.250Z,87.6
2022-12-26T00:20:14.523Z,87.6
2022-12-26T00:21:30.838Z,87.6
2022-12-26T00:22:47.113Z,87.8
2022-12-26T00:24:03.425Z,87.8
2022-12-26T00:25:19.705Z,87.7
2022-12-26T00:26:35.993Z,87.8
2022-12-26T00:27:52.309Z,87.7
2022-12-26T00:29:08.595Z,87.7
2022-12-26T00:30:24.888Z,87.7
2022-12-26T00:31:41.192Z,87.8
2022-12-26T00:32:56.476Z,87.8
2022-12-26T00:34:12.771Z,87.9
2022-12-26T00:35:29.090Z,88
2022-12-26T00:36:45.397Z,88
2022-12-26T00:38:01.657Z,87.9
2022-12-26T00:39:17.968Z,87.8
2022-12-26T00:40:34.246Z,87.7
2022-12-26T00:41:49.595Z,87.6
2022-12-26T00:43:04.892Z,87.4
2022-12-26T00:44:20.209Z,87.3
2022-12-26T00:45:35.492Z,87.3
2022-12-26T00:46:51.809Z,87.4
2022-12-26T00:48:08.079Z,87.3
2022-12-26T00:49:24.392Z,87.2
2022-12-26T00:50:40.703Z,87.3
2022-12-26T00:51:56.966Z,87.3
2022-12-26T00:53:13.291Z,87.2
2022-12-26T00:54:29.554Z,87.2
2022-12-26T00:55:45.841Z,87.3
2022-12-26T00:57:02.169Z,87.3
2022-12-26T00:58:18.454Z,87.5
2022-12-26T00:59:34.756Z,87.7
2022-12-26T01:00:51.023Z,87.3
2022-12-26T01:02:06.339Z,87.2
2022-12-26T01:03:22.629Z,87.1
2022-12-26T01:04:38.938Z,87
2022-12-26T01:05:55.212Z,86.9
2022-12-26T01:07:11.514Z,86.7
2022-12-26T01:08:27.806Z,86.8
2022-12-26T01:09:44.096Z,86.7
2022-12-26T01:10:59.413Z,86.8
2022-12-26T01:12:14.717Z,86.7
2022-12-26T01:13:30.062Z,86.8
2022-12-26T01:14:45.367Z,86.8
2022-12-26T01:16:01.636Z,86.8
2022-12-26T01:17:17.930Z,86.8
2022-12-26T01:18:34.227Z,86.8
2022-12-26T01:19:50.529Z,86.6
2022-12-26T01:21:06.842Z,86.8
2022-12-26T01:22:23.145Z,86.8
2022-12-26T01:23:39.410Z,86.9
2022-12-26T01:24:55.715Z,86.9
2022-12-26T01:26:12.010Z,86.9
2022-12-26T01:27:28.286Z,87.1
2022-12-26T01:28:44.585Z,87.2
2022-12-26T01:30:00.900Z,87.1
2022-12-26T01:31:16.184Z,86.9
2022-12-26T01:32:32.484Z,86.9
2022-12-26T01:33:48.771Z,86.8
2022-12-26T01:35:05.092Z,86.8
2022-12-26T01:36:21.385Z,86.6
2022-12-26T01:37:37.681Z,86.5
2022-12-26T01:38:53.945Z,86.5
2022-12-26T01:40:09.282Z,86.5
2022-12-26T01:41:24.592Z,86.6
2022-12-26T01:42:40.895Z,86.5
2022-12-26T01:43:56.187Z,86.5
2022-12-26T01:45:11.497Z,86.4
2022-12-26T01:46:27.815Z,86.3
2022-12-26T01:47:44.080Z,86.3
2022-12-26T01:49:00.393Z,86.2
2022-12-26T01:50:16.687Z,86.3
2022-12-26T01:51:32.981Z,86.1
2022-12-26T01:52:49.261Z,85.8
2022-12-26T01:54:05.562Z,85.7
2022-12-26T01:55:21.843Z,85.6
2022-12-26T01:56:38.134Z,85.7
2022-12-26T01:57:54.431Z,85.5
2022-12-26T01:59:10.728Z,85.5
2022-12-26T02:00:27.038Z,85.5
2022-12-26T02:01:42.329Z,85.4
2022-12-26T02:02:58.640Z,85.3
2022-12-26T02:04:14.910Z,85.4
2022-12-26T02:05:31.236Z,85.5
2022-12-26T02:06:47.516Z,85.4
2022-12-26T02:08:03.795Z,85.3
2022-12-26T02:09:20.113Z,85.2
2022-12-26T02:10:35.411Z,85.4
2022-12-26T02:11:50.739Z,85.4
2022-12-26T02:13:07.030Z,85.5
2022-12-26T02:14:23.469Z,85.7
2022-12-26T02:15:38.776Z,85.8
2022-12-26T02:16:55.076Z,85.9
2022-12-26T02:18:11.375Z,85.8
2022-12-26T02:19:27.638Z,85.9
2022-12-26T02:20:43.943Z,86.1
2022-12-26T02:22:00.244Z,86.2
2022-12-26T02:23:16.545Z,86.4
2022-12-26T02:24:32.810Z,86.5
2022-12-26T02:25:49.141Z,86.7
2022-12-26T02:27:05.414Z,86.8
2022-12-26T02:28:21.698Z,86.9
2022-12-26T02:29:38.003Z,86.9
2022-12-26T02:30:54.280Z,86.8
2022-12-26T02:32:09.608Z,86.8
2022-12-26T02:33:25.913Z,86.7
2022-12-26T02:34:42.202Z,86.5
2022-12-26T02:35:58.480Z,86.5
2022-12-26T02:37:14.804Z,86.4
2022-12-26T02:38:31.065Z,86.5
2022-12-26T02:39:47.357Z,86.5
2022-12-26T02:41:02.700Z,86.5
2022-12-26T02:42:18.014Z,86.6
2022-12-26T02:43:34.278Z,86.3
2022-12-26T02:44:50.570Z,86.4
2022-12-26T02:46:05.896Z,86.3
2022-12-26T02:47:21.200Z,86.3
2022-12-26T02:48:37.495Z,86.4
2022-12-26T02:49:53.790Z,86.2
2022-12-26T02:51:10.084Z,86
2022-12-26T02:52:26.372Z,85.9
2022-12-26T02:53:42.670Z,85.8
2022-12-26T02:54:58.971Z,85.9
2022-12-26T02:56:15.265Z,85.6
2022-12-26T02:57:31.552Z,85.4
2022-12-26T02:58:47.846Z,85.4
2022-12-26T03:00:04.132Z,85.3
2022-12-26T03:01:20.428Z,85.6
2022-12-26T03:02:36.735Z,85.5
2022-12-26T03:03:52.030Z,85.7
2022-12-26T03:05:08.330Z,85.7
2022-12-26T03:06:24.630Z,85.8
2022-12-26T03:07:40.923Z,85.9
2022-12-26T03:08:57.218Z,85.8
2022-12-26T03:10:13.506Z,86
2022-12-26T03:11:29.806Z,86
2022-12-26T03:12:45.115Z,86.1
2022-12-26T03:14:00.442Z,86.2
2022-12-26T03:15:15.747Z,86.2
2022-12-26T03:16:31.065Z,86.1
2022-12-26T03:17:47.342Z,86.2
2022-12-26T03:19:03.631Z,86.1
2022-12-26T03:20:19.926Z,86.1
2022-12-26T03:21:36.221Z,86.1
2022-12-26T03:22:51.537Z,86.1
2022-12-26T03:24:07.838Z,85.9
2022-12-26T03:25:24.128Z,86.1
2022-12-26T03:26:40.425Z,85.9
2022-12-26T03:27:56.719Z,86
2022-12-26T03:29:13.021Z,86
2022-12-26T03:30:29.312Z,86
2022-12-26T03:31:45.602Z,86.1
2022-12-26T03:33:01.895Z,86
2022-12-26T03:34:18.190Z,86
2022-12-26T03:35:34.479Z,86.1
2022-12-26T03:36:50.769Z,86.1
2022-12-26T03:38:07.068Z,86.1
2022-12-26T03:39:22.383Z,86.2
2022-12-26T03:40:38.680Z,86
2022-12-26T03:41:53.988Z,86.1
2022-12-26T03:43:09.309Z,86
2022-12-26T03:44:25.613Z,86.1
2022-12-26T03:45:41.881Z,86.3
2022-12-26T03:46:58.198Z,86.4
2022-12-26T03:48:14.480Z,86.3
2022-12-26T03:49:30.766Z,86.3
2022-12-26T03:50:47.068Z,86.2
2022-12-26T03:52:03.353Z,86
2022-12-26T03:53:19.653Z,86
2022-12-26T03:54:35.946Z,86
2022-12-26T03:55:52.234Z,85.9
2022-12-26T03:57:08.531Z,85.8
2022-12-26T03:58:24.824Z,85.6
2022-12-26T03:59:40.130Z,85.6
2022-12-26T04:00:56.421Z,85.5
2022-12-26T04:02:12.717Z,85.5
2022-12-26T04:03:29.022Z,85.4
2022-12-26T04:04:45.321Z,85.4
2022-12-26T04:06:01.597Z,85.3
2022-12-26T04:07:17.897Z,85.1
2022-12-26T04:08:33.220Z,85.1
2022-12-26T04:09:48.525Z,85.3
2022-12-26T04:11:04.811Z,85.3
2022-12-26T04:12:21.111Z,85.2
2022-12-26T04:13:37.422Z,85
2022-12-26T04:14:53.707Z,85
2022-12-26T04:16:09.999Z,85.1
2022-12-26T04:17:26.285Z,85.4
2022-12-26T04:18:42.583Z,85.3
2022-12-26T04:19:58.873Z,85.1
2022-12-26T04:21:15.171Z,85.1
2022-12-26T04:22:31.468Z,85.2
2022-12-26T04:23:47.750Z,85.1
2022-12-26T04:25:04.069Z,85.2
2022-12-26T04:26:19.369Z,85.1
2022-12-26T04:27:35.665Z,85.2
2022-12-26T04:28:51.952Z,85.2
2022-12-26T04:30:08.247Z,85.4
2022-12-26T04:31:24.534Z,85.5
2022-12-26T04:32:40.837Z,85.4
2022-12-26T04:33:57.137Z,85.5
2022-12-26T04:35:12.444Z,85.3
2022-12-26T04:36:27.757Z,85.5
2022-12-26T04:37:43.070Z,85.3
2022-12-26T04:38:58.368Z,85.5
2022-12-26T04:40:13.684Z,85.2
2022-12-26T04:41:28.994Z,85
2022-12-26T04:42:45.302Z,84.9
2022-12-26T04:44:01.590Z,84.7
2022-12-26T04:45:17.888Z,84.6
2022-12-26T04:46:34.187Z,84.4
2022-12-26T04:47:50.473Z,84.7
2022-12-26T04:49:06.763Z,84.6
2022-12-26T04:50:23.057Z,84.8
2022-12-26T04:51:39.347Z,84.7
2022-12-26T04:52:55.655Z,84.9
2022-12-26T04:54:11.948Z,84.9
2022-12-26T04:55:28.240Z,85.2
2022-12-26T04:56:44.535Z,85.2
2022-12-26T04:57:59.840Z,84.9
2022-12-26T04:59:16.136Z,84.7
2022-12-26T05:00:32.440Z,84.9
2022-12-26T05:01:48.726Z,85
2022-12-26T05:03:05.019Z,85.1
2022-12-26T05:04:21.311Z,85
2022-12-26T05:05:37.597Z,85.2
2022-12-26T05:06:52.925Z,85.2
2022-12-26T05:08:08.236Z,85.2
2022-12-26T05:09:23.541Z,85.4
2022-12-26T05:10:38.848Z,85.4
2022-12-26T05:11:54.166Z,85.6
2022-12-26T05:13:09.471Z,85.8
2022-12-26T05:14:25.766Z,85.6
2022-12-26T05:15:42.069Z,85.7
2022-12-26T05:16:58.365Z,85.7
2022-12-26T05:18:14.655Z,85.6
2022-12-26T05:19:30.939Z,85.8
2022-12-26T05:20:47.234Z,85.6
2022-12-26T05:22:03.553Z,85.6
2022-12-26T05:23:19.830Z,85.5
2022-12-26T05:24:36.133Z,85.6
2022-12-26T05:25:52.418Z,85.6
2022-12-26T05:27:08.707Z,85.6
2022-12-26T05:28:25.006Z,85.6
2022-12-26T05:29:40.307Z,85.6
2022-12-26T05:30:56.612Z,85.7
2022-12-26T05:32:12.909Z,85.5
2022-12-26T05:33:29.204Z,85.7
2022-12-26T05:34:45.488Z,85.6
2022-12-26T05:36:01.791Z,85.6
2022-12-26T05:37:18.073Z,85.6
2022-12-26T05:38:33.389Z,85.8
2022-12-26T05:39:48.706Z,85.7
2022-12-26T05:41:05.000Z,85.8
2022-12-26T05:42:21.287Z,85.8
2022-12-26T05:43:37.589Z,85.9
2022-12-26T05:44:53.891Z,85.9
2022-12-26T05:46:10.168Z,85.7
2022-12-26T05:47:26.470Z,85.6
2022-12-26T05:48:42.765Z,85.4
2022-12-26T05:49:59.057Z,85.4
2022-12-26T05:51:15.358Z,85.4
2022-12-26T05:52:31.634Z,85.3
2022-12-26T05:53:47.930Z,85.4
2022-12-26T05:55:04.222Z,85.2
2022-12-26T05:56:19.543Z,85.4
2022-12-26T05:57:35.833Z,85.3
2022-12-26T05:58:52.128Z,85.1
2022-12-26T06:00:08.438Z,85.1
2022-12-26T06:01:24.717Z,85.1
2022-12-26T06:02:41.006Z,85.3
2022-12-26T06:03:57.312Z,85.3
2022-12-26T06:05:12.625Z,85.4
2022-12-26T06:06:27.947Z,85.5
2022-12-26T06:07:43.249Z,85.6
2022-12-26T06:08:58.563Z,85.7
2022-12-26T06:10:13.866Z,85.8
2022-12-26T06:11:29.177Z,85.9
2022-12-26T06:12:44.507Z,86
2022-12-26T06:13:59.801Z,86.1
2022-12-26T06:15:16.109Z,86.1
2022-12-26T06:16:32.409Z,86.1
2022-12-26T06:17:48.679Z,86
2022-12-26T06:19:04.974Z,86.2
2022-12-26T06:20:21.267Z,86.2
2022-12-26T06:21:37.571Z,86.3
2022-12-26T06:22:53.860Z,86.3
2022-12-26T06:24:10.162Z,86.4
2022-12-26T06:25:26.448Z,86.5
2022-12-26T06:26:42.749Z,86.6
2022-12-26T06:27:59.034Z,86.7
2022-12-26T06:29:15.324Z,86.7
2022-12-26T06:30:30.635Z,86.8
2022-12-26T06:31:46.893Z,86.8
2022-12-26T06:33:03.170Z,86.9
2022-12-26T06:34:19.431Z,86.9
2022-12-26T06:35:35.667Z,86.9
2022-12-26T06:36:51.909Z,87
2022-12-26T06:38:08.161Z,86.9
2022-12-26T06:39:23.411Z,86.9
2022-12-26T06:40:38.668Z,86.8
2022-12-26T06:41:53.936Z,86.7
2022-12-26T06:43:09.197Z,86.7
2022-12-26T06:44:25.439Z,86.8
2022-12-26T06:45:41.682Z,86.8
2022-12-26T06:46:57.921Z,86.9
2022-12-26T06:48:14.151Z,86.9
2022-12-26T06:49:30.409Z,86.9
2022-12-26T06:50:46.632Z,86.9
2022-12-26T06:52:02.871Z,87
2022-12-26T06:53:19.120Z,87.1
2022-12-26T06:54:35.344Z,87.3
2022-12-26T06:55:51.592Z,87.3
2022-12-26T06:57:07.829Z,87.2
2022-12-26T06:58:24.084Z,87.2
2022-12-26T06:59:39.333Z,87.1
2022-12-26T07:00:55.571Z,87.1
2022-12-26T07:02:11.806Z,87.2
2022-12-26T07:03:28.067Z,87.2
2022-12-26T07:04:44.283Z,87.4
2022-12-26T07:06:00.522Z,87.4
2022-12-26T07:07:16.759Z,87.4
2022-12-26T07:08:32.032Z,87.5
2022-12-26T07:09:47.294Z,87.3
2022-12-26T07:11:03.533Z,87.1
2022-12-26T07:12:19.775Z,87.2
2022-12-26T07:13:36.022Z,87.2
2022-12-26T07:14:52.238Z,87.2
2022-12-26T07:16:08.493Z,87.2
2022-12-26T07:17:24.722Z,87.1
2022-12-26T07:18:40.968Z,87.1
2022-12-26T07:19:57.215Z,87
2022-12-26T07:21:13.450Z,87
2022-12-26T07:22:29.689Z,87
2022-12-26T07:23:45.926Z,86.9
2022-12-26T07:25:02.161Z,86.9
2022-12-26T07:26:17.411Z,86.9
2022-12-26T07:27:33.667Z,86.9
2022-12-26T07:28:49.910Z,86.8
2022-12-26T07:30:06.157Z,86.8
2022-12-26T07:31:22.376Z,86.8
2022-12-26T07:32:38.614Z,86.8
2022-12-26T07:33:54.852Z,86.6
2022-12-26T07:35:10.129Z,86.6
2022-12-26T07:36:25.374Z,86.4
2022-12-26T07:37:40.653Z,86.5
2022-12-26T07:38:55.909Z,86.5
2022-12-26T07:40:12.150Z,86.5
2022-12-26T07:41:28.377Z,86.5
2022-12-26T07:42:44.629Z,86.4
2022-12-26T07:44:00.857Z,86.4
2022-12-26T07:45:17.115Z,86.3
2022-12-26T07:46:33.338Z,86.3
2022-12-26T07:47:49.596Z,86.3
2022-12-26T07:49:05.820Z,86.4
2022-12-26T07:50:22.084Z,86.4
2022-12-26T07:51:38.306Z,86.4
2022-12-26T07:52:54.566Z,86.5
2022-12-26T07:54:10.775Z,86.4
2022-12-26T07:55:26.046Z,86.4
2022-12-26T07:56:42.291Z,86.3
2022-12-26T07:57:58.524Z,86.6
2022-12-26T07:59:14.770Z,86.5
2022-12-26T08:00:30.992Z,86.3
2022-12-26T08:01:47.246Z,86.4
2022-12-26T08:03:03.486Z,86.6
2022-12-26T08:04:18.757Z,86.5
2022-12-26T08:05:34.012Z,86.4
2022-12-26T08:06:49.276Z,86.4
2022-12-26T08:08:04.512Z,86.4
2022-12-26T08:09:20.773Z,86.3
2022-12-26T08:10:36.997Z,86.1
2022-12-26T08:11:53.238Z,85.9
2022-12-26T08:13:09.497Z,85.9
2022-12-26T08:14:25.707Z,86
2022-12-26T08:15:41.971Z,86.1
2022-12-26T08:16:58.186Z,86
2022-12-26T08:18:14.443Z,86.2
2022-12-26T08:19:30.674Z,86.1
2022-12-26T08:20:46.935Z,86.2
2022-12-26T08:22:03.153Z,86.2
2022-12-26T08:23:19.397Z,85.9
2022-12-26T08:24:34.665Z,85.9
2022-12-26T08:25:50.883Z,86
2022-12-26T08:27:07.141Z,85.9
2022-12-26T08:28:23.379Z,85.7
2022-12-26T08:29:39.614Z,85.7
2022-12-26T08:30:55.865Z,85.6
2022-12-26T08:32:12.089Z,85.8
2022-12-26T08:33:27.374Z,85.6
2022-12-26T08:34:42.615Z,85.4
2022-12-26T08:35:58.856Z,85.4
2022-12-26T08:37:15.099Z,85
2022-12-26T08:38:31.326Z,85
2022-12-26T08:39:47.582Z,84.7
2022-12-26T08:41:03.812Z,84.9
2022-12-26T08:43:36.300Z,85.2
2022-12-26T08:46:08.775Z,84.8
2022-12-26T08:48:41.263Z,85
2022-12-26T08:51:13.730Z,85
2022-12-26T08:52:28.993Z,84.7
2022-12-26T08:53:44.249Z,84.5
2022-12-26T08:54:59.511Z,85.1
2022-12-26T08:56:14.761Z,84.8
2022-12-26T08:57:31.009Z,84.6
2022-12-26T08:58:47.244Z,84.6
2022-12-26T09:00:03.489Z,84.5
2022-12-26T09:01:19.715Z,84.3
2022-12-26T09:02:35.953Z,84.1
2022-12-26T09:03:52.224Z,84.4
2022-12-26T09:05:08.449Z,84.2
2022-12-26T09:06:24.687Z,84
2022-12-26T09:07:40.912Z,84.1
2022-12-26T09:08:56.000Z,84.2
2022-12-26T09:10:11.434Z,84
2022-12-26T09:11:27.674Z,84.1
2022-12-26T09:12:42.944Z,84.2
2022-12-26T09:13:58.200Z,84.2
2022-12-26T09:15:14.441Z,84.2
2022-12-26T09:16:30.668Z,84.4
2022-12-26T09:17:46.921Z,83.9
2022-12-26T09:19:03.165Z,84.2
2022-12-26T09:20:19.394Z,84.2
2022-12-26T09:21:35.650Z,83.9
2022-12-26T09:22:51.886Z,84
2022-12-26T09:24:08.114Z,84.1
2022-12-26T09:25:24.363Z,84.3
2022-12-26T09:26:40.600Z,84.3
2022-12-26T09:27:56.834Z,84.5
2022-12-26T09:29:13.092Z,85
2022-12-26T09:30:28.346Z,84.9
2022-12-26T09:31:44.575Z,84.6
2022-12-26T09:33:00.819Z,84.7
2022-12-26T09:34:17.054Z,85
2022-12-26T09:35:33.295Z,84.5
2022-12-26T09:36:49.537Z,84.6
2022-12-26T09:38:05.784Z,85
2022-12-26T09:39:21.034Z,84.9
2022-12-26T09:40:36.288Z,84.6
2022-12-26T09:41:51.563Z,84.8
2022-12-26T09:43:06.814Z,84.6
2022-12-26T09:44:23.046Z,84.3
2022-12-26T09:45:39.296Z,84.3
2022-12-26T09:46:55.535Z,84.4
2022-12-26T09:48:11.766Z,84.6
2022-12-26T09:49:28.013Z,84.6
2022-12-26T09:50:44.255Z,84.9
2022-12-26T09:52:00.492Z,85.1
2022-12-26T09:53:16.741Z,85
2022-12-26T09:54:32.983Z,85
2022-12-26T09:55:49.208Z,85.2
2022-12-26T09:57:05.450Z,85.8
2022-12-26T09:58:21.695Z,85.8
2022-12-26T09:59:36.947Z,86.3
2022-12-26T10:00:53.196Z,86.9
2022-12-26T10:02:09.417Z,86.5
2022-12-26T10:03:25.667Z,86.5
2022-12-26T10:04:41.908Z,87.2
2022-12-26T10:05:58.153Z,87.5
2022-12-26T10:07:14.391Z,86.9
2022-12-26T10:08:29.661Z,87
2022-12-26T10:09:44.910Z,87.3
2022-12-26T10:11:00.175Z,87.2
2022-12-26T10:12:16.406Z,87.2
2022-12-26T10:13:31.668Z,86.8
2022-12-26T10:14:47.897Z,86.7
2022-12-26T10:16:04.132Z,86.7
2022-12-26T10:17:20.391Z,86.9
2022-12-26T10:18:36.618Z,87
2022-12-26T10:19:52.858Z,87
2022-12-26T10:21:09.114Z,87
2022-12-26T10:22:25.339Z,87.1
2022-12-26T10:23:41.574Z,87.1
2022-12-26T10:24:57.830Z,87
2022-12-26T10:26:14.058Z,87.3
2022-12-26T10:27:30.294Z,87.1
2022-12-26T10:28:46.547Z,87.5
2022-12-26T10:30:01.797Z,87.4
2022-12-26T10:31:18.033Z,87.3
2022-12-26T10:32:34.276Z,87.3
2022-12-26T10:33:50.528Z,87.7
2022-12-26T10:35:06.754Z,87.7
2022-12-26T10:36:23.008Z,87.7
2022-12-26T10:37:38.262Z,88
2022-12-26T10:38:53.512Z,88.2
2022-12-26T10:40:08.776Z,87.6
2022-12-26T10:41:24.035Z,88.2
2022-12-26T10:42:40.264Z,88.2
2022-12-26T10:43:56.520Z,88.1
2022-12-26T10:45:12.755Z,87.8
2022-12-26T10:46:28.984Z,88.2
2022-12-26T10:47:45.222Z,88.1
2022-12-26T10:49:01.469Z,88
2022-12-26T10:50:17.704Z,88.1
2022-12-26T10:51:33.943Z,88.1
2022-12-26T10:52:50.197Z,88
2022-12-26T10:54:06.424Z,88.3
2022-12-26T10:55:22.668Z,88.7
2022-12-26T10:56:38.911Z,88.3
2022-12-26T10:57:54.165Z,88.4
2022-12-26T10:59:10.399Z,88.1
2022-12-26T11:00:26.635Z,88.5
2022-12-26T11:01:42.884Z,88.7
2022-12-26T11:02:59.120Z,88.2
2022-12-26T11:04:15.355Z,88.2
2022-12-26T11:05:31.606Z,88.2
2022-12-26T11:06:46.859Z,88.2
2022-12-26T11:08:02.132Z,88
2022-12-26T11:09:17.386Z,87.9
2022-12-26T11:10:32.636Z,87.7
2022-12-26T11:11:48.890Z,87.8
2022-12-26T11:13:05.120Z,88.8
2022-12-26T11:14:21.357Z,90.4
2022-12-26T11:15:37.604Z,91.7
2022-12-26T11:16:53.840Z,92.6
2022-12-26T11:18:10.077Z,92.8
2022-12-26T11:19:26.320Z,93.1
2022-12-26T11:20:42.562Z,92.2
2022-12-26T11:21:58.800Z,92.7
2022-12-26T11:23:15.048Z,93
2022-12-26T11:24:31.283Z,92.8
2022-12-26T11:25:47.518Z,93.2
2022-12-26T11:27:02.765Z,93.4
2022-12-26T11:28:19.022Z,93.7
2022-12-26T11:29:35.264Z,93.7
2022-12-26T11:30:51.486Z,94
2022-12-26T11:32:07.742Z,94.1
2022-12-26T11:33:23.971Z,94.3
2022-12-26T11:34:40.207Z,94.4
2022-12-26T11:35:55.482Z,94.3
2022-12-26T11:37:10.729Z,94.7
2022-12-26T11:38:25.983Z,94.7
2022-12-26T11:39:41.251Z,95
2022-12-26T11:40:57.487Z,95.1
2022-12-26T11:42:13.733Z,94.8
2022-12-26T11:43:29.986Z,94.6
2022-12-26T11:44:46.207Z,94.5
2022-12-26T11:46:02.449Z,94.6
2022-12-26T11:47:18.694Z,94.5
2022-12-26T11:48:34.928Z,94.2
2022-12-26T11:49:51.169Z,94.7
2022-12-26T11:51:07.410Z,94.7
2022-12-26T11:52:22.675Z,95.1
2022-12-26T11:53:38.903Z,95.3
2022-12-26T11:54:55.155Z,95.8
2022-12-26T11:56:11.392Z,95.8
2022-12-26T11:57:27.647Z,96.2
2022-12-26T11:58:43.879Z,96.3
2022-12-26T12:00:00.118Z,96.2
2022-12-26T12:01:16.344Z,96.1
2022-12-26T12:02:32.593Z,96.4
2022-12-26T12:03:48.831Z,96.5
2022-12-26T12:05:04.084Z,96.4
2022-12-26T12:06:19.350Z,96.4
2022-12-26T12:07:34.614Z,96.6
2022-12-26T12:08:49.865Z,96.4
2022-12-26T12:10:06.105Z,96.6
2022-12-26T12:11:22.349Z,96.7
2022-12-26T12:12:38.573Z,96.6
2022-12-26T12:13:54.833Z,95.9
2022-12-26T12:15:11.065Z,96
2022-12-26T12:16:27.294Z,96.2
2022-12-26T12:17:43.554Z,96.1
2022-12-26T12:18:59.786Z,96.1
2022-12-26T12:20:16.014Z,96.2
2022-12-26T12:21:32.278Z,96
2022-12-26T12:22:48.511Z,95.8
2022-12-26T12:24:04.735Z,95.7
2022-12-26T12:25:19.990Z,95.7
2022-12-26T12:26:36.241Z,95.8
2022-12-26T12:27:52.475Z,95.7
2022-12-26T12:29:08.710Z,95.9
2022-12-26T12:30:24.966Z,95.9
2022-12-26T12:31:41.203Z,96
2022-12-26T12:32:57.430Z,96.1
2022-12-26T12:34:12.699Z,95.8
2022-12-26T12:35:27.957Z,95.9
2022-12-26T12:36:44.188Z,95.9
2022-12-26T12:38:00.437Z,95.9
2022-12-26T12:39:16.678Z,96.1
2022-12-26T12:40:32.909Z,96.3
2022-12-26T12:41:49.164Z,96.4
2022-12-26T12:43:05.398Z,96.2
2022-12-26T12:44:21.630Z,96.4
2022-12-26T12:45:37.884Z,96.3
2022-12-26T12:46:54.118Z,96.5
2022-12-26T12:48:10.350Z,96.7
2022-12-26T12:49:26.603Z,96.5
2022-12-26T12:50:42.839Z,96.6
2022-12-26T12:51:58.089Z,96.4
2022-12-26T12:53:14.343Z,96.7
2022-12-26T12:54:30.580Z,96.8
2022-12-26T12:55:46.809Z,96.8
2022-12-26T12:57:03.056Z,96.8
2022-12-26T12:58:19.293Z,96.8
2022-12-26T12:59:35.530Z,96.9
2022-12-26T13:00:50.799Z,96.9
2022-12-26T13:02:06.053Z,96.9
2022-12-26T13:03:22.281Z,96.9
2022-12-26T13:04:38.535Z,97
2022-12-26T13:05:54.777Z,96.9
2022-12-26T13:07:11.002Z,96.9
2022-12-26T13:08:27.254Z,96.6
2022-12-26T13:09:43.494Z,96.1
2022-12-26T13:10:59.723Z,96.4
2022-12-26T13:12:15.973Z,96.4
2022-12-26T13:13:32.214Z,96.3
2022-12-26T13:14:48.443Z,96.2
2022-12-26T13:16:04.693Z,96
2022-12-26T13:17:20.935Z,95.8
2022-12-26T13:18:36.183Z,96
2022-12-26T13:19:52.417Z,95.8
2022-12-26T13:21:08.679Z,95.5
2022-12-26T13:22:24.903Z,95.5
2022-12-26T13:23:41.138Z,95.4
2022-12-26T13:24:57.394Z,95.6
2022-12-26T13:26:13.632Z,95.6
2022-12-26T13:27:28.894Z,95.5
2022-12-26T13:28:44.146Z,95.5
2022-12-26T13:29:59.405Z,95.5
2022-12-26T13:31:14.654Z,95.5
2022-12-26T13:32:29.923Z,95.4
2022-12-26T13:33:45.177Z,95.5
2022-12-26T13:35:01.433Z,95.1
2022-12-26T13:36:17.673Z,95.2
2022-12-26T13:37:33.897Z,95
2022-12-26T13:38:50.143Z,94.7
2022-12-26T13:40:06.389Z,94.9
2022-12-26T13:41:22.618Z,94.8
2022-12-26T13:42:38.873Z,94.9
2022-12-26T13:43:55.103Z,94.9
2022-12-26T13:45:11.346Z,94.6
2022-12-26T13:46:27.589Z,94.6
2022-12-26T13:47:43.827Z,94.7
2022-12-26T13:49:00.059Z,94.4
2022-12-26T13:50:15.315Z,94.3
2022-12-26T13:51:31.571Z,94.5
2022-12-26T13:52:47.801Z,94.4
2022-12-26T13:54:04.027Z,94.3
2022-12-26T13:55:20.298Z,94
2022-12-26T13:56:36.519Z,94.2
2022-12-26T13:57:52.747Z,94.2
2022-12-26T13:59:08.023Z,94.2
2022-12-26T14:00:23.271Z,94.1
2022-12-26T14:01:38.545Z,93.8
2022-12-26T14:02:53.801Z,93.8
2022-12-26T14:04:10.028Z,93.7
2022-12-26T14:05:26.264Z,93.7
2022-12-26T14:06:42.520Z,93.3
2022-12-26T14:07:58.759Z,93.2
2022-12-26T14:09:14.984Z,93.3
2022-12-26T14:10:31.243Z,93.2
2022-12-26T14:11:47.474Z,93.3
2022-12-26T14:13:03.704Z,93.3
2022-12-26T14:14:19.940Z,93.5
2022-12-26T14:15:36.197Z,93.7
2022-12-26T14:16:52.425Z,93.5
2022-12-26T14:18:08.683Z,93.5
2022-12-26T14:19:23.929Z,93.5
2022-12-26T14:20:40.163Z,93.5
2022-12-26T14:21:56.429Z,93.4
2022-12-26T14:23:12.651Z,93.5
2022-12-26T14:24:28.885Z,93.5
2022-12-26T14:25:45.128Z,93.5
2022-12-26T14:27:01.369Z,93.5
2022-12-26T14:28:16.624Z,93.4
2022-12-26T14:29:31.892Z,93.4
2022-12-26T14:30:48.139Z,93.5
2022-12-26T14:32:03.382Z,93.5
2022-12-26T14:33:18.656Z,93.6
2022-12-26T14:34:34.885Z,93.7
2022-12-26T14:35:51.114Z,94
2022-12-26T14:37:07.370Z,94.1
2022-12-26T14:38:23.614Z,94.1
2022-12-26T14:39:39.834Z,94.5
2022-12-26T14:40:56.100Z,94.7
2022-12-26T14:42:12.326Z,95.1
2022-12-26T14:43:28.555Z,95.2
2022-12-26T14:44:44.812Z,95.3
2022-12-26T14:46:01.055Z,95.3
2022-12-26T14:47:17.286Z,95.4
2022-12-26T14:48:33.540Z,95.2
2022-12-26T14:49:48.790Z,95.1
2022-12-26T14:51:05.015Z,95.1
2022-12-26T14:52:21.260Z,94.8
2022-12-26T14:53:37.500Z,94.6
2022-12-26T14:54:53.735Z,94.7
2022-12-26T14:56:09.981Z,94.7
2022-12-26T14:57:26.227Z,94.4
2022-12-26T14:58:41.474Z,94.4
2022-12-26T14:59:56.729Z,94.3
2022-12-26T15:01:12.016Z,94.3
2022-12-26T15:02:27.262Z,94.2
2022-12-26T15:03:43.487Z,94.3
2022-12-26T15:04:59.737Z,94.2
2022-12-26T15:06:15.980Z,94.2
2022-12-26T15:07:32.207Z,94.2
2022-12-26T15:08:48.459Z,94.3
2022-12-26T15:10:04.698Z,94.5
2022-12-26T15:11:20.928Z,94.7
2022-12-26T15:12:37.179Z,94.7
2022-12-26T15:13:53.416Z,95.2
2022-12-26T15:15:09.661Z,95.5
2022-12-26T15:16:25.900Z,95.6
2022-12-26T15:17:42.125Z,95.8
2022-12-26T15:18:57.393Z,95.7
2022-12-26T15:20:13.637Z,95.8
2022-12-26T15:21:29.883Z,95.6
2022-12-26T15:22:46.108Z,95.4
2022-12-26T15:24:02.358Z,95.5
2022-12-26T15:25:18.599Z,95.2
2022-12-26T15:26:34.829Z,94.8
2022-12-26T15:27:50.098Z,94.8
2022-12-26T15:29:05.351Z,94.8
2022-12-26T15:30:20.599Z,94.7
2022-12-26T15:31:35.856Z,94.4
2022-12-26T15:32:52.124Z,94.1
2022-12-26T15:34:08.391Z,94
2022-12-26T15:35:24.647Z,93.9
2022-12-26T15:36:40.895Z,93.8
2022-12-26T15:37:57.153Z,93.6
2022-12-26T15:39:13.000Z,93.6
2022-12-26T15:40:29.600Z,93.6
2022-12-26T15:41:45.867Z,93.5
2022-12-26T15:43:02.136Z,93.4
2022-12-26T15:44:18.451Z,93.3
2022-12-26T15:45:34.752Z,93.3
2022-12-26T15:46:51.043Z,93.2
2022-12-26T15:48:07.437Z,93.1
2022-12-26T15:49:23.745Z,93.1
2022-12-26T15:50:40.035Z,93.1
2022-12-26T15:51:56.339Z,93
2022-12-26T15:53:12.624Z,93
2022-12-26T15:54:28.922Z,92.9
2022-12-26T15:55:45.196Z,92.9
2022-12-26T15:57:01.518Z,92.9
2022-12-26T15:58:16.805Z,92.9
2022-12-26T15:59:32.123Z,92.9
2022-12-26T16:00:48.421Z,93
2022-12-26T16:02:04.727Z,93
2022-12-26T16:03:20.998Z,93.1
2022-12-26T16:04:37.298Z,93.1
2022-12-26T16:05:53.596Z,93.3
2022-12-26T16:07:08.914Z,93.2
2022-12-26T16:08:25.206Z,93.3
2022-12-26T16:09:41.510Z,93.3
2022-12-26T16:10:57.783Z,93.4
2022-12-26T16:12:14.082Z,93.5
2022-12-26T16:13:30.385Z,93.5
2022-12-26T16:14:46.688Z,93.5
2022-12-26T16:16:02.979Z,93.5
2022-12-26T16:17:19.256Z,93.5
2022-12-26T16:18:35.556Z,93.4
2022-12-26T16:19:51.858Z,93.5
2022-12-26T16:21:08.148Z,93.5
2022-12-26T16:22:24.442Z,93.6
2022-12-26T16:23:39.746Z,93.7
2022-12-26T16:24:55.060Z,93.7
2022-12-26T16:26:11.359Z,93.8
2022-12-26T16:27:26.673Z,93.8
2022-12-26T16:28:42.969Z,93.8
2022-12-26T16:29:59.246Z,93.8
2022-12-26T16:31:15.546Z,93.9
2022-12-26T16:32:31.851Z,93.9
2022-12-26T16:33:48.147Z,93.9
2022-12-26T16:35:04.421Z,93.9
2022-12-26T16:36:20.720Z,94
2022-12-26T16:37:37.025Z,94
2022-12-26T16:40:09.629Z,94.1
2022-12-26T16:41:25.909Z,94
2022-12-26T16:42:42.187Z,94
2022-12-26T16:43:57.509Z,94
2022-12-26T16:45:13.805Z,94
2022-12-26T16:46:30.104Z,94.1
2022-12-26T16:47:46.380Z,94.2
2022-12-26T16:49:02.679Z,94.1
2022-12-26T16:50:18.971Z,94.3
2022-12-26T16:51:35.270Z,94.3
2022-12-26T16:52:50.597Z,94.4
2022-12-26T16:54:05.910Z,94.4
2022-12-26T16:55:21.203Z,94.4
2022-12-26T16:56:37.501Z,94.5
2022-12-26T16:57:52.826Z,94.5
2022-12-26T16:59:08.129Z,94.6
2022-12-26T17:00:24.429Z,94.7
2022-12-26T17:01:40.728Z,94.6
2022-12-26T17:02:57.006Z,94.6
2022-12-26T17:04:13.313Z,94.7
2022-12-26T17:05:29.604Z,94.6